Time;durP1;ratioP1;P1;durP2;ratioP2;P2;SDS_P1;SDS_P2;PMS_P1;PMS_P2;Temp;Humidity;BMP_temperature;BMP_pressure;BME280_temperature;BME280_humidity;BME280_pressure;Samples;Min_cycle;Max_cycle;Signal;HPM_P1;HPM_P2
2022/06/24 00:02:08;;;;;;;6.60;5.80;;;20.30;99.90;;;;;;5009232;28;20495;-71
2022/06/24 00:04:33;;;;;;;8.05;6.30;;;20.50;99.90;;;;;;5009904;28;20021;-72
2022/06/24 00:06:59;;;;;;;6.45;5.60;;;20.40;99.90;;;;;;5009476;28;20451;-71
2022/06/24 00:09:30;;;;;;;7.88;5.57;;;20.60;99.90;;;;;;5009840;28;20018;-71
2022/06/24 00:12:04;;;;;;;7.15;5.57;;;20.40;99.90;;;;;;5009786;28;20045;-72
2022/06/24 00:14:29;;;;;;;6.72;6.00;;;20.50;99.90;;;;;;5009437;28;20054;-71
2022/06/24 00:16:55;;;;;;;6.82;6.22;;;21.40;99.90;;;;;;5009099;28;20189;-71
2022/06/24 00:19:22;;;;;;;8.93;7.03;;;20.30;99.90;;;;;;5009811;28;20030;-71
2022/06/24 00:22:09;;;;;;;8.00;6.18;;;20.30;99.90;;;;;;5009514;28;20030;-71
2022/06/24 00:24:36;;;;;;;6.32;5.72;;;20.20;99.90;;;;;;5009608;28;20069;-72
2022/06/24 00:27:04;;;;;;;9.07;6.28;;;20.30;99.90;;;;;;5009446;28;20057;-71
2022/06/24 00:29:32;;;;;;;9.57;6.80;;;20.20;99.90;;;;;;5009173;28;20463;-71
2022/06/24 00:32:06;;;;;;;7.53;6.22;;;20.20;99.90;;;;;;5008695;28;20024;-71
2022/06/24 00:34:33;;;;;;;8.60;7.63;;;20.20;99.90;;;;;;5009356;28;20137;-71
2022/06/24 00:37:23;;;;;;;8.02;7.22;;;20.30;99.90;;;;;;5007884;28;20078;-71
2022/06/24 00:39:49;;;;;;;8.55;7.28;;;20.30;99.90;;;;;;5008875;28;20472;-71
2022/06/24 00:42:18;;;;;;;8.43;7.72;;;20.20;99.90;;;;;;5009224;28;20080;-71
2022/06/24 00:44:49;;;;;;;9.10;8.20;;;20.40;99.90;;;;;;5008763;28;20152;-71
2022/06/24 00:47:16;;;;;;;7.95;7.25;;;20.80;99.90;;;;;;5009164;28;20165;-71
2022/06/24 00:49:45;;;;;;;9.13;8.32;;;20.30;99.90;;;;;;5009181;28;20022;-71
2022/06/24 00:52:11;;;;;;;12.02;9.52;;;20.30;99.90;;;;;;5009041;28;20022;-69
2022/06/24 00:54:38;;;;;;;9.85;8.63;;;;;;;;;;5008882;28;20484;-69
2022/06/24 00:57:03;;;;;;;10.35;9.00;;;20.20;99.90;;;;;;5004821;28;20023;-70
2022/06/24 00:59:34;;;;;;;13.75;9.38;;;20.40;99.90;;;;;;5008516;28;20483;-69
2022/06/24 01:02:04;;;;;;;10.95;9.95;;;20.20;99.90;;;;;;5000562;28;20088;-69
2022/06/24 01:04:32;;;;;;;10.80;9.70;;;20.30;99.90;;;;;;5008944;28;20018;-69
2022/06/24 01:06:57;;;;;;;12.13;11.05;;;20.20;99.90;;;;;;5008802;28;20034;-69
2022/06/24 01:09:23;;;;;;;13.93;12.55;;;20.30;99.90;;;;;;5008530;28;20022;-70
2022/06/24 01:11:48;;;;;;;13.70;12.48;;;20.30;99.90;;;;;;5007315;28;20468;-69
2022/06/24 01:14:14;;;;;;;12.02;10.80;;;21.50;99.90;;;;;;5006474;28;20070;-70
2022/06/24 01:16:40;;;;;;;15.90;14.10;;;21.10;99.90;;;;;;5008952;28;20414;-69
2022/06/24 01:19:08;;;;;;;15.02;13.60;;;22.10;99.90;;;;;;5008453;28;20022;-70
2022/06/24 01:21:45;;;;;;;16.33;12.70;;;20.30;99.90;;;;;;5008882;28;20032;-70
2022/06/24 01:24:20;;;;;;;12.65;11.43;;;20.20;99.90;;;;;;5008420;28;20084;-69
2022/06/24 01:26:48;;;;;;;18.17;16.27;;;20.30;99.90;;;;;;5008701;28;20037;-69
2022/06/24 01:29:15;;;;;;;17.85;16.15;;;20.40;99.90;;;;;;5008134;28;20040;-70
2022/06/24 01:31:42;;;;;;;16.05;14.38;;;20.20;99.90;;;;;;5008842;28;20029;-70
2022/06/24 01:34:09;;;;;;;17.85;16.20;;;20.00;99.90;;;;;;5008096;28;20018;-69
2022/06/24 01:36:35;;;;;;;12.07;11.00;;;20.10;99.90;;;;;;5008797;28;20032;-69
2022/06/24 01:39:00;;;;;;;13.52;12.27;;;21.00;99.90;;;;;;5008443;28;20116;-69
2022/06/24 01:41:26;;;;;;;12.48;10.95;;;19.90;99.90;;;;;;5008411;28;20030;-69
2022/06/24 01:43:52;;;;;;;10.05;9.15;;;20.00;99.90;;;;;;5010616;28;20030;-69
2022/06/24 01:46:17;;;;;;;10.65;9.07;;;20.00;99.90;;;;;;5012011;28;20386;-69
2022/06/24 01:48:43;;;;;;;10.32;9.32;;;21.40;99.90;;;;;;5012301;28;20034;-70
2022/06/24 01:51:12;;;;;;;10.77;9.68;;;19.80;99.90;;;;;;5026904;28;20026;-70
2022/06/24 01:53:37;;;;;;;11.02;9.93;;;21.30;99.90;;;;;;5010809;28;20025;-69
2022/06/24 01:56:03;;;;;;;11.18;10.02;;;19.70;99.90;;;;;;5011758;28;20053;-69
2022/06/24 01:58:29;;;;;;;14.05;12.40;;;19.80;99.90;;;;;;5011634;28;20025;-69
2022/06/24 02:00:54;;;;;;;16.02;14.25;;;19.80;99.90;;;;;;5011888;28;20033;-69
2022/06/24 02:03:20;;;;;;;14.43;13.02;;;20.40;99.90;;;;;;5011601;28;20033;-69
2022/06/24 02:05:46;;;;;;;14.98;13.38;;;19.70;99.90;;;;;;5011687;28;20064;-70
2022/06/24 02:08:13;;;;;;;14.27;12.93;;;19.80;99.90;;;;;;5011887;28;20030;-69
2022/06/24 02:13:29;;;;;;;7.63;6.40;;;20.00;99.90;;;;;;5012056;28;20040;-71
2022/06/24 02:15:58;;;;;;;7.03;6.25;;;19.60;99.90;;;;;;5011645;28;20056;-71
2022/06/24 02:18:24;;;;;;;5.90;4.85;;;19.60;99.90;;;;;;5012094;28;20438;-71
2022/06/24 02:20:50;;;;;;;6.15;3.78;;;19.60;99.90;;;;;;5011566;28;20033;-71
2022/06/24 02:23:18;;;;;;;5.07;3.70;;;19.60;99.90;;;;;;5011841;28;20129;-71
2022/06/24 02:25:45;;;;;;;4.20;3.55;;;19.40;99.90;;;;;;5011177;28;20053;-72
2022/06/24 02:28:11;;;;;;;5.85;4.50;;;19.70;99.90;;;;;;5011590;28;20073;-73
2022/06/24 02:30:38;;;;;;;11.07;6.18;;;19.40;99.90;;;;;;5009018;28;20098;-74
2022/06/24 02:33:04;;;;;;;6.88;4.90;;;20.20;99.90;;;;;;5000552;28;20018;-73
2022/06/24 02:35:30;;;;;;;6.05;5.53;;;19.20;99.90;;;;;;5010818;28;20030;-73
2022/06/24 02:37:55;;;;;;;6.03;4.88;;;20.10;99.90;;;;;;5011067;28;20022;-73
2022/06/24 02:43:15;;;;;;;6.10;4.95;;;20.00;99.90;;;;;;5010932;28;20041;-71
2022/06/24 02:45:42;;;;;;;4.57;4.13;;;19.10;99.90;;;;;;5003428;28;20084;-71
2022/06/24 02:48:08;;;;;;;5.88;4.80;;;19.10;99.90;;;;;;5010678;28;20349;-70
2022/06/24 02:50:41;;;;;;;4.40;4.00;;;19.20;99.90;;;;;;5011114;28;20459;-70
2022/06/24 02:53:07;;;;;;;;;;;19.20;99.90;;;;;;5011130;28;20028;-71
2022/06/24 02:55:32;;;;;;;3.47;2.72;;;19.10;99.90;;;;;;5009789;28;19913;-71
2022/06/24 02:57:58;;;;;;;3.90;3.30;;;18.90;99.90;;;;;;5010789;28;20018;-74
2022/06/24 03:00:23;;;;;;;3.33;2.80;;;18.70;99.90;;;;;;5010922;28;20479;-71
2022/06/24 03:02:49;;;;;;;3.17;2.88;;;18.70;99.90;;;;;;5010437;28;20057;-71
2022/06/24 03:05:14;;;;;;;3.13;2.67;;;18.60;99.90;;;;;;5010630;28;20033;-71
2022/06/24 03:07:40;;;;;;;5.55;3.20;;;18.70;99.90;;;;;;5010746;28;20076;-71
2022/06/24 03:10:06;;;;;;;2.80;2.58;;;18.50;99.90;;;;;;5009929;28;20037;-72
2022/06/24 03:12:32;;;;;;;3.70;2.85;;;18.30;99.90;;;;;;5010730;28;20014;-71
2022/06/24 03:14:57;;;;;;;4.00;2.70;;;18.50;99.90;;;;;;5010099;28;20053;-71
2022/06/24 03:17:23;;;;;;;1.40;1.27;;;18.60;99.90;;;;;;5010286;28;20037;-71
2022/06/24 03:19:48;;;;;;;3.65;1.48;;;18.50;99.90;;;;;;5010617;28;20033;-71
2022/06/24 03:22:14;;;;;;;3.47;1.75;;;18.60;99.90;;;;;;5010340;28;20053;-71
2022/06/24 03:24:40;;;;;;;3.35;1.92;;;20.10;99.90;;;;;;5010405;28;20327;-71
2022/06/24 03:27:06;;;;;;;3.45;1.70;;;18.40;99.90;;;;;;5025282;28;20475;-71
2022/06/24 03:29:32;;;;;;;1.92;1.50;;;;;;;;;;5010277;28;20022;-70
2022/06/24 03:31:58;;;;;;;4.05;1.70;;;18.30;99.90;;;;;;5010236;28;20030;-70
2022/06/24 03:34:23;;;;;;;3.72;1.70;;;18.30;99.90;;;;;;5009810;28;20096;-70
2022/06/24 03:36:49;;;;;;;2.63;2.08;;;18.20;99.90;;;;;;5010041;28;20053;-71
2022/06/24 03:39:15;;;;;;;4.05;2.60;;;18.20;99.90;;;;;;5009555;28;20097;-70
2022/06/24 03:41:40;;;;;;;4.13;2.40;;;18.10;99.90;;;;;;5010137;28;20040;-70
2022/06/24 03:44:06;;;;;;;4.97;2.72;;;18.10;99.90;;;;;;5009712;28;20032;-70
2022/06/24 03:46:32;;;;;;;2.60;2.33;;;18.30;99.90;;;;;;5010168;28;20479;-71
2022/06/24 03:48:57;;;;;;;4.45;1.73;;;17.90;99.90;;;;;;5009747;28;20387;-70
2022/06/24 03:51:23;;;;;;;3.97;2.08;;;18.10;99.90;;;;;;5024910;28;20022;-70
2022/06/24 03:53:48;;;;;;;6.65;2.78;;;18.10;99.90;;;;;;5009212;28;20033;-70
2022/06/24 03:56:14;;;;;;;4.13;2.20;;;18.20;99.90;;;;;;5009644;28;20171;-70
2022/06/24 03:58:39;;;;;;;3.22;2.30;;;18.10;99.90;;;;;;5009602;28;20096;-70
2022/06/24 04:01:05;;;;;;;3.38;2.30;;;18.10;99.90;;;;;;5009625;28;20026;-70
2022/06/24 04:03:30;;;;;;;3.70;2.10;;;18.10;99.90;;;;;;5008323;28;20018;-70
2022/06/24 04:05:56;;;;;;;4.80;2.20;;;18.10;99.90;;;;;;5009669;28;20026;-70
2022/06/24 04:08:22;;;;;;;3.05;2.13;;;;;;;;;;5009038;28;20100;-70
2022/06/24 04:10:47;;;;;;;2.85;1.83;;;18.10;99.90;;;;;;5009481;28;20026;-70
2022/06/24 04:13:13;;;;;;;3.15;2.15;;;18.00;99.90;;;;;;5009161;28;20033;-71
2022/06/24 04:15:47;;;;;;;4.63;2.17;;;18.00;99.90;;;;;;5009366;28;20046;-71
2022/06/24 04:18:13;;;;;;;3.08;1.90;;;18.00;99.90;;;;;;5009623;28;20033;-71
2022/06/24 04:20:38;;;;;;;2.67;1.95;;;18.00;99.90;;;;;;5009400;28;20034;-71
2022/06/24 04:23:04;;;;;;;3.45;2.20;;;18.00;99.90;;;;;;5008795;28;20109;-70
2022/06/24 04:25:30;;;;;;;5.25;2.90;;;18.00;99.90;;;;;;5009605;28;20030;-70
2022/06/24 04:27:56;;;;;;;4.85;2.60;;;18.10;99.90;;;;;;5008872;28;20018;-71
2022/06/24 04:30:21;;;;;;;3.63;2.22;;;18.00;99.90;;;;;;5006928;28;20018;-70
2022/06/24 04:32:47;;;;;;;2.53;2.08;;;18.00;99.90;;;;;;5008733;28;20101;-71
2022/06/24 04:35:12;;;;;;;4.75;2.40;;;18.00;99.90;;;;;;5008175;28;20037;-71
2022/06/24 04:37:39;;;;;;;4.53;2.05;;;18.00;99.90;;;;;;5006475;28;20046;-71
2022/06/24 04:40:07;;;;;;;11.02;3.05;;;18.00;99.90;;;;;;5007806;28;20025;-71
2022/06/24 04:42:33;;;;;;;4.38;2.17;;;17.90;99.90;;;;;;5018312;28;20022;-71
2022/06/24 04:44:59;;;;;;;3.08;2.15;;;18.00;99.90;;;;;;5008863;28;20032;-71
2022/06/24 04:47:24;;;;;;;2.92;2.10;;;18.00;99.90;;;;;;5009217;28;20432;-71
2022/06/24 04:49:50;;;;;;;2.78;2.15;;;18.00;99.90;;;;;;5008958;28;20092;-71
2022/06/24 04:52:15;;;;;;;2.72;2.33;;;18.10;99.90;;;;;;5008424;28;20029;-71
2022/06/24 04:54:42;;;;;;;4.88;2.50;;;18.80;99.90;;;;;;5008833;28;20095;-71
2022/06/24 04:57:07;;;;;;;4.50;2.30;;;18.10;99.90;;;;;;5008555;28;20037;-71
2022/06/24 04:59:34;;;;;;;4.53;2.28;;;18.00;99.90;;;;;;5008570;28;20034;-71
2022/06/24 05:01:59;;;;;;;6.22;3.60;;;18.00;99.90;;;;;;5008525;28;20121;-71
2022/06/24 05:04:25;;;;;;;8.90;5.43;;;18.10;99.90;;;;;;5009081;28;20076;-71
2022/06/24 05:06:51;;;;;;;11.07;5.70;;;;;;;;;;5006871;28;20113;-71
2022/06/24 05:09:19;;;;;;;13.23;6.30;;;18.10;99.90;;;;;;5008925;28;20025;-70
2022/06/24 05:11:46;;;;;;;14.02;6.60;;;18.10;99.90;;;;;;5008818;28;20103;-71
2022/06/24 05:14:12;;;;;;;16.25;6.68;;;18.00;99.90;;;;;;5007045;28;20567;-71
2022/06/24 05:16:40;;;;;;;12.20;6.45;;;19.20;99.90;;;;;;5008784;28;20061;-71
2022/06/24 05:19:07;;;;;;;12.90;7.15;;;18.20;99.90;;;;;;5011660;28;20100;-71
2022/06/24 05:21:32;;;;;;;11.88;6.00;;;18.60;99.90;;;;;;5012429;28;20118;-71
2022/06/24 05:23:58;;;;;;;7.60;4.70;;;18.10;99.90;;;;;;5011138;28;20125;-71
2022/06/24 05:26:24;;;;;;;6.57;4.10;;;;;;;;;;5012627;28;20029;-71
2022/06/24 05:28:49;;;;;;;3.97;3.22;;;18.00;99.90;;;;;;5012331;28;20026;-71
2022/06/24 05:31:15;;;;;;;6.15;3.40;;;18.30;99.90;;;;;;5012401;28;20029;-71
2022/06/24 05:33:41;;;;;;;4.47;3.45;;;18.20;99.90;;;;;;5012608;28;20030;-71
2022/06/24 05:36:07;;;;;;;3.95;3.55;;;18.40;99.90;;;;;;5011662;28;20467;-72
2022/06/24 05:38:32;;;;;;;4.13;3.25;;;18.20;99.90;;;;;;5012705;28;20022;-71
2022/06/24 05:40:58;;;;;;;4.20;2.92;;;;;;;;;;5012103;28;20033;-71
2022/06/24 05:43:24;;;;;;;3.45;3.15;;;18.30;99.90;;;;;;5012591;28;20025;-71
2022/06/24 05:45:49;;;;;;;4.43;3.30;;;19.60;99.90;;;;;;4999061;28;20040;-70
2022/06/24 05:48:15;;;;;;;3.90;3.03;;;18.50;99.90;;;;;;5002996;28;20467;-70
2022/06/24 05:50:41;;;;;;;3.80;3.42;;;18.90;99.90;;;;;;5011628;28;20473;-71
2022/06/24 05:55:58;;;;;;;5.72;4.20;;;18.50;99.90;;;;;;5011957;28;20168;-71
2022/06/24 05:58:25;;;;;;;5.90;4.57;;;18.60;99.90;;;;;;5012054;28;20037;-71
2022/06/24 06:00:51;;;;;;;6.47;4.40;;;18.40;99.90;;;;;;5008499;28;20483;-70
2022/06/24 06:03:17;;;;;;;8.60;5.13;;;;;;;;;;5011258;28;20044;-71
2022/06/24 06:05:43;;;;;;;5.07;4.18;;;18.60;99.90;;;;;;5012061;28;20022;-70
2022/06/24 06:08:10;;;;;;;5.80;4.65;;;19.90;99.90;;;;;;5026722;28;20542;-70
2022/06/24 06:10:37;;;;;;;4.93;4.32;;;18.50;99.90;;;;;;5011882;28;20041;-72
2022/06/24 06:13:03;;;;;;;6.45;4.68;;;18.70;99.90;;;;;;5011651;28;20483;-71
2022/06/24 06:15:30;;;;;;;5.80;5.30;;;18.80;99.90;;;;;;5010169;28;20492;-70
2022/06/24 06:17:55;;;;;;;6.47;5.28;;;18.80;99.90;;;;;;5009106;28;20507;-71
2022/06/24 06:20:21;;;;;;;6.32;5.15;;;19.50;99.90;;;;;;5011152;28;20061;-71
2022/06/24 06:22:47;;;;;;;7.13;5.20;;;18.80;99.90;;;;;;5008391;28;20065;-71
2022/06/24 06:25:15;;;;;;;6.88;5.85;;;18.80;99.90;;;;;;5010394;28;20049;-71
2022/06/24 06:27:40;;;;;;;5.78;5.28;;;19.60;99.90;;;;;;5008488;28;20029;-70
2022/06/24 06:30:07;;;;;;;7.63;6.07;;;19.30;99.90;;;;;;5008035;28;20100;-71
2022/06/24 06:32:33;;;;;;;7.32;5.25;;;18.70;99.90;;;;;;5008366;28;20117;-71
2022/06/24 06:34:58;;;;;;;6.97;5.30;;;18.60;99.90;;;;;;5009143;28;20543;-71
2022/06/24 06:37:24;;;;;;;5.93;5.35;;;18.70;99.90;;;;;;5010401;28;20498;-71
2022/06/24 06:39:49;;;;;;;6.07;4.90;;;18.70;99.90;;;;;;5010041;28;20030;-70
2022/06/24 06:42:15;;;;;;;5.25;4.75;;;18.70;99.90;;;;;;5010278;28;20463;-71
2022/06/24 06:44:40;;;;;;;6.63;6.03;;;18.60;99.90;;;;;;5025032;28;20033;-71
2022/06/24 06:47:06;;;;;;;6.97;5.65;;;18.40;99.90;;;;;;5009381;28;20068;-70
2022/06/24 06:49:32;;;;;;;6.22;5.63;;;18.80;99.90;;;;;;5010138;28;20029;-70
2022/06/24 06:52:01;;;;;;;5.80;5.05;;;18.80;99.90;;;;;;5010487;28;20025;-71
2022/06/24 06:54:27;;;;;;;6.28;5.68;;;18.80;99.90;;;;;;5010682;28;20041;-71
2022/06/24 06:56:52;;;;;;;6.75;5.05;;;19.00;99.90;;;;;;5010785;28;20025;-71
2022/06/24 06:59:18;;;;;;;5.63;5.13;;;19.00;99.90;;;;;;5010815;28;20030;-70
2022/06/24 07:01:44;;;;;;;5.57;5.07;;;19.10;99.90;;;;;;5010345;28;20030;-70
2022/06/24 07:04:09;;;;;;;7.00;5.55;;;19.00;99.90;;;;;;5010307;28;20079;-71
2022/06/24 07:06:35;;;;;;;5.70;5.20;;;19.00;99.90;;;;;;5011371;28;20029;-72
2022/06/24 07:09:01;;;;;;;6.53;5.22;;;21.80;99.90;;;;;;5010237;28;20044;-70
2022/06/24 07:11:26;;;;;;;5.35;4.85;;;19.10;99.90;;;;;;5026057;28;20108;-70
2022/06/24 07:13:52;;;;;;;5.25;4.75;;;19.10;99.90;;;;;;5010015;28;20178;-70
2022/06/24 07:16:18;;;;;;;6.60;5.03;;;19.10;99.90;;;;;;5010175;28;20574;-70
2022/06/24 07:18:43;;;;;;;6.90;5.55;;;19.20;99.90;;;;;;5010562;28;20097;-70
2022/06/24 07:21:12;;;;;;;6.13;5.55;;;19.20;99.90;;;;;;5010414;28;20127;-70
2022/06/24 07:23:39;;;;;;;6.55;5.85;;;19.00;99.90;;;;;;5010750;28;20122;-70
2022/06/24 07:26:05;;;;;;;6.93;6.28;;;;;;;;;;5009068;28;20125;-70
2022/06/24 07:28:31;;;;;;;6.75;6.15;;;19.00;99.90;;;;;;5010672;28;20034;-70
2022/06/24 07:30:56;;;;;;;8.30;6.63;;;19.10;99.90;;;;;;5009942;28;20029;-70
2022/06/24 07:33:23;;;;;;;7.35;6.72;;;19.10;99.90;;;;;;5010213;28;20088;-70
2022/06/24 07:35:49;;;;;;;6.30;5.80;;;18.80;99.90;;;;;;5009803;28;20034;-70
2022/06/24 07:38:15;;;;;;;6.97;6.20;;;19.40;99.90;;;;;;5010300;28;20538;-70
2022/06/24 07:40:40;;;;;;;7.25;6.60;;;19.20;99.90;;;;;;5009893;28;20042;-70
2022/06/24 07:43:06;;;;;;;7.15;6.45;;;19.30;99.90;;;;;;5010139;28;20528;-70
2022/06/24 07:45:33;;;;;;;9.10;7.53;;;19.40;99.90;;;;;;5009907;28;20032;-70
2022/06/24 07:47:59;;;;;;;14.52;7.95;;;19.50;99.90;;;;;;5009842;28;20025;-70
2022/06/24 07:50:24;;;;;;;8.57;7.88;;;19.50;99.90;;;;;;5010390;28;20024;-70
2022/06/24 07:52:51;;;;;;;8.70;7.90;;;19.50;99.90;;;;;;5009901;28;20022;-71
2022/06/24 07:58:00;;;;;;;9.73;8.77;;;19.60;99.90;;;;;;5009821;28;20129;-70
2022/06/24 08:00:26;;;;;;;10.05;9.15;;;19.70;99.90;;;;;;5009564;28;20449;-70
2022/06/24 08:02:52;;;;;;;12.25;11.25;;;19.70;99.90;;;;;;5009912;28;20037;-70
2022/06/24 08:05:17;;;;;;;11.93;10.90;;;20.00;99.90;;;;;;5009299;28;20049;-70
2022/06/24 08:07:44;;;;;;;13.07;11.88;;;19.80;99.90;;;;;;5009911;28;20036;-70
2022/06/24 08:10:09;;;;;;;12.73;11.63;;;20.10;99.90;;;;;;5009609;28;20033;-70
2022/06/24 08:12:35;;;;;;;12.88;11.85;;;20.00;99.90;;;;;;5008555;28;20026;-70
2022/06/24 08:15:01;;;;;;;12.70;11.52;;;20.20;99.90;;;;;;5008578;28;20057;-70
2022/06/24 08:17:26;;;;;;;12.15;10.95;;;20.30;99.90;;;;;;5009845;28;20032;-70
2022/06/24 08:19:53;;;;;;;12.50;11.50;;;20.40;99.90;;;;;;5009762;28;20432;-70
2022/06/24 08:22:19;;;;;;;13.25;12.10;;;20.40;99.90;;;;;;5007994;28;20034;-70
2022/06/24 08:24:46;;;;;;;12.10;11.10;;;20.30;99.90;;;;;;5009730;28;20025;-70
2022/06/24 08:27:12;;;;;;;13.13;11.73;;;20.50;99.90;;;;;;5008120;28;20390;-70
2022/06/24 08:29:38;;;;;;;11.70;10.55;;;21.80;99.90;;;;;;5008849;28;20018;-70
2022/06/24 08:32:04;;;;;;;12.98;11.70;;;20.60;99.90;;;;;;5009355;28;20490;-70
2022/06/24 08:34:29;;;;;;;11.07;10.23;;;20.60;99.90;;;;;;5009284;28;20519;-70
2022/06/24 08:36:55;;;;;;;12.35;11.27;;;21.30;99.90;;;;;;5009406;28;20041;-70
2022/06/24 08:39:20;;;;;;;12.68;11.48;;;20.70;99.90;;;;;;5009183;28;20032;-70
2022/06/24 08:41:48;;;;;;;11.18;10.23;;;20.60;99.90;;;;;;5009373;28;20053;-70
2022/06/24 08:44:13;;;;;;;15.13;12.15;;;21.80;99.90;;;;;;5008392;28;20028;-70
2022/06/24 08:46:40;;;;;;;13.63;12.57;;;21.00;99.90;;;;;;5009256;28;20108;-71
2022/06/24 08:49:06;;;;;;;14.38;12.98;;;21.10;99.90;;;;;;5009045;28;20110;-70
2022/06/24 08:51:34;;;;;;;11.55;10.70;;;21.40;99.90;;;;;;5008210;28;20108;-70
2022/06/24 08:54:02;;;;;;;14.15;13.05;;;21.30;99.90;;;;;;5007286;28;20022;-70
2022/06/24 08:56:28;;;;;;;12.10;11.10;;;21.40;99.90;;;;;;5008590;28;20054;-70
2022/06/24 08:58:55;;;;;;;13.63;12.43;;;21.50;99.90;;;;;;5007867;28;20084;-70
2022/06/24 09:01:20;;;;;;;12.35;11.23;;;21.60;99.90;;;;;;5008507;28;20391;-70
2022/06/24 09:03:47;;;;;;;12.10;11.02;;;21.60;99.90;;;;;;5008658;28;20022;-70
2022/06/24 09:06:14;;;;;;;11.93;10.60;;;21.60;99.90;;;;;;5009198;28;20058;-70
2022/06/24 09:08:40;;;;;;;13.73;12.60;;;21.90;99.90;;;;;;5009190;28;20026;-70
2022/06/24 09:11:07;;;;;;;12.65;11.60;;;21.90;99.90;;;;;;5008738;28;20570;-70
2022/06/24 09:13:44;;;;;;;13.27;12.18;;;21.90;99.90;;;;;;5008300;28;20050;-70
2022/06/24 09:16:11;;;;;;;13.18;11.98;;;22.00;99.90;;;;;;5008852;28;20030;-70
2022/06/24 09:18:37;;;;;;;13.23;12.15;;;22.00;99.90;;;;;;5008891;28;20018;-70
2022/06/24 09:21:03;;;;;;;11.40;10.50;;;22.00;99.90;;;;;;5006940;28;20143;-70
2022/06/24 09:23:28;;;;;;;11.80;10.88;;;22.10;99.90;;;;;;5009203;28;20487;-70
2022/06/24 09:25:57;;;;;;;12.70;11.45;;;22.10;99.90;;;;;;5008374;28;20053;-70
2022/06/24 09:28:31;;;;;;;12.07;10.98;;;22.20;99.90;;;;;;5008877;28;20061;-70
2022/06/24 09:31:08;;;;;;;11.57;10.60;;;22.00;99.90;;;;;;5008495;28;20073;-70
2022/06/24 09:33:41;;;;;;;14.23;13.02;;;22.00;99.90;;;;;;5009364;28;20057;-70
2022/06/24 09:36:09;;;;;;;12.80;11.70;;;21.90;99.90;;;;;;5008571;28;20030;-70
2022/06/24 09:38:54;;;;;;;13.18;12.07;;;21.70;99.90;;;;;;5008874;28;20057;-70
2022/06/24 09:41:20;;;;;;;12.98;11.98;;;20.50;99.90;;;;;;4994143;28;20026;-70
2022/06/24 09:43:46;;;;;;;13.52;12.52;;;21.70;99.90;;;;;;5007722;28;20080;-70
2022/06/24 09:46:22;;;;;;;16.52;15.15;;;22.00;99.90;;;;;;5008503;28;20022;-70
2022/06/24 09:48:51;;;;;;;14.13;13.13;;;22.10;99.90;;;;;;5008666;28;20030;-69
2022/06/24 09:51:17;;;;;;;15.80;14.48;;;22.60;99.90;;;;;;5008351;28;20025;-69
2022/06/24 09:53:43;;;;;;;14.30;12.98;;;22.20;99.90;;;;;;5008454;28;20037;-70
2022/06/24 09:56:10;;;;;;;15.13;13.70;;;22.10;99.90;;;;;;5007897;28;20163;-69
2022/06/24 09:58:37;;;;;;;15.20;13.98;;;23.00;99.90;;;;;;5008690;28;20477;-70
2022/06/24 10:01:03;;;;;;;16.55;15.13;;;21.90;99.90;;;;;;5007841;28;20030;-69
2022/06/24 10:03:29;;;;;;;16.48;14.93;;;22.80;99.90;;;;;;5008714;28;20018;-69
2022/06/24 10:06:05;;;;;;;15.18;13.77;;;22.10;99.90;;;;;;5011827;28;20028;-69
2022/06/24 10:08:33;;;;;;;15.23;14.02;;;22.20;99.90;;;;;;5012370;28;20096;-69
2022/06/24 10:11:00;;;;;;;14.73;13.43;;;22.30;99.90;;;;;;5010748;28;20096;-69
2022/06/24 10:13:33;;;;;;;16.42;15.02;;;22.30;99.90;;;;;;5011993;28;20434;-69
2022/06/24 10:16:01;;;;;;;;;;;22.60;99.90;;;;;;5011600;28;20498;-69
2022/06/24 10:18:34;;;;;;;13.45;12.23;;;22.50;99.90;;;;;;5012054;28;19905;-70
2022/06/24 10:21:02;;;;;;;14.63;13.43;;;22.60;99.90;;;;;;5011288;28;20024;-69
2022/06/24 10:23:43;;;;;;;15.50;14.20;;;22.70;99.90;;;;;;5011866;28;20056;-69
2022/06/24 10:26:12;;;;;;;17.70;15.68;;;22.90;99.90;;;;;;5010935;28;20028;-69
2022/06/24 10:28:59;;;;;;;15.90;14.60;;;23.10;99.90;;;;;;5011823;28;20046;-69
2022/06/24 10:31:52;;;;;;;16.13;14.57;;;23.10;99.90;;;;;;4998262;28;20049;-69
2022/06/24 10:34:29;;;;;;;15.50;14.18;;;23.20;99.90;;;;;;5011522;28;20018;-70
2022/06/24 10:36:59;;;;;;;17.25;15.73;;;23.50;99.90;;;;;;5011722;28;20093;-70
2022/06/24 10:39:27;;;;;;;17.35;16.00;;;22.90;99.90;;;;;;5011559;28;20038;-70
2022/06/24 10:42:07;;;;;;;16.77;15.48;;;23.10;99.90;;;;;;5011476;28;20034;-70
2022/06/24 10:44:35;;;;;;;15.90;14.40;;;23.30;99.90;;;;;;5011626;28;20037;-70
2022/06/24 10:47:10;;;;;;;17.23;15.48;;;23.80;99.90;;;;;;5011021;28;20025;-70
2022/06/24 10:49:54;;;;;;;16.20;14.95;;;23.60;99.90;;;;;;5011044;28;20117;-70
2022/06/24 10:52:53;;;;;;;14.65;13.57;;;23.80;99.90;;;;;;5009356;28;20121;-70
2022/06/24 10:55:24;;;;;;;15.00;13.30;;;24.00;99.90;;;;;;5008933;28;20069;-70
2022/06/24 10:57:51;;;;;;;14.50;13.30;;;24.10;99.90;;;;;;5009604;28;20033;-71
2022/06/24 11:03:04;;;;;;;12.02;11.13;;;24.20;99.90;;;;;;5021728;28;20057;-77
2022/06/24 11:05:30;;;;;;;10.18;9.38;;;24.50;99.90;;;;;;5007391;28;20087;-76
2022/06/24 11:07:56;;;;;;;9.20;8.50;;;24.50;99.90;;;;;;5015285;28;20026;-76
2022/06/24 11:10:24;;;;;;;10.38;9.48;;;24.60;99.90;;;;;;5024851;28;20105;-75
2022/06/24 11:12:52;;;;;;;10.50;9.48;;;24.70;99.90;;;;;;5018182;28;20032;-75
2022/06/24 11:15:21;;;;;;;9.35;8.65;;;24.70;99.90;;;;;;5021496;28;20072;-75
2022/06/24 11:17:47;;;;;;;8.80;8.00;;;24.80;99.90;;;;;;5017428;28;20032;-76
2022/06/24 11:20:13;;;;;;;9.02;8.13;;;24.80;99.90;;;;;;5008710;28;20446;-76
2022/06/24 11:22:46;;;;;;;8.18;7.18;;;24.70;99.90;;;;;;5024834;28;20538;-76
2022/06/24 11:25:17;;;;;;;8.40;7.60;;;24.70;99.90;;;;;;5025651;28;20573;-76
2022/06/24 11:27:43;;;;;;;8.13;6.50;;;24.70;99.90;;;;;;5022196;28;20020;-76
2022/06/24 11:30:09;;;;;;;7.20;6.50;;;25.00;99.90;;;;;;5009907;28;20034;-76
2022/06/24 11:33:01;;;;;;;6.60;6.03;;;25.80;99.90;;;;;;5023394;28;20021;-76
2022/06/24 11:35:28;;;;;;;6.13;5.57;;;25.00;99.90;;;;;;5009786;28;20029;-74
2022/06/24 11:37:56;;;;;;;6.47;5.82;;;24.90;99.90;;;;;;5009313;28;20030;-74
2022/06/24 11:40:32;;;;;;;5.93;5.45;;;25.70;99.90;;;;;;5009911;28;20018;-74
2022/06/24 11:43:15;;;;;;;6.10;5.45;;;24.70;99.90;;;;;;5009710;28;20022;-74
2022/06/24 11:45:48;;;;;;;;;;;24.90;99.30;;;;;;5010607;28;20030;-73
2022/06/24 11:48:22;;;;;;;6.55;5.95;;;24.70;99.60;;;;;;5020427;28;19913;-74
2022/06/24 11:50:48;;;;;;;7.43;6.72;;;24.70;99.90;;;;;;5010504;28;20495;-74
2022/06/24 11:53:15;;;;;;;6.93;6.35;;;24.50;99.90;;;;;;5009899;28;20092;-74
2022/06/24 11:55:42;;;;;;;8.70;8.00;;;24.30;99.90;;;;;;5010627;28;20041;-73
2022/06/24 11:58:11;;;;;;;10.20;9.40;;;23.90;99.90;;;;;;5010005;28;20022;-73
2022/06/24 12:00:39;;;;;;;12.85;11.75;;;23.80;99.90;;;;;;4999408;28;20114;-74
2022/06/24 12:03:55;;;;;;;;;;;;;;;;;;;;;
2022/06/24 12:06:22;;;;;;;12.55;11.55;;;23.60;99.90;;;;;;5027645;22;20064;-71
2022/06/24 12:08:49;;;;;;;11.52;10.60;;;22.50;99.90;;;;;;5030084;28;20052;-71
2022/06/24 12:11:17;;;;;;;10.40;9.45;;;22.30;99.90;;;;;;5029788;28;20022;-71
2022/06/24 12:13:54;;;;;;;10.15;9.32;;;22.00;99.90;;;;;;5029521;28;20034;-71
2022/06/24 12:16:19;;;;;;;9.48;8.55;;;21.70;99.90;;;;;;5029845;28;20071;-71
2022/06/24 12:18:45;;;;;;;7.55;7.05;;;21.60;99.90;;;;;;5029211;28;20459;-71
2022/06/24 12:21:10;;;;;;;7.40;6.80;;;22.40;99.90;;;;;;5028822;28;20037;-72
2022/06/24 12:23:44;;;;;;;7.05;6.47;;;21.50;99.90;;;;;;5029860;28;20040;-71
2022/06/24 12:26:24;;;;;;;8.23;7.43;;;21.90;99.90;;;;;;5028809;28;20013;-71
2022/06/24 12:29:04;;;;;;;6.68;6.18;;;21.90;99.90;;;;;;5028956;28;20096;-71
2022/06/24 12:31:31;;;;;;;7.75;7.13;;;22.00;99.90;;;;;;5027627;28;20087;-71
2022/06/24 12:33:57;;;;;;;7.70;7.13;;;22.40;99.90;;;;;;5023722;28;20032;-71
2022/06/24 12:36:35;;;;;;;6.35;5.85;;;22.60;99.90;;;;;;5028865;28;20490;-71
2022/06/24 12:39:08;;;;;;;4.85;4.35;;;23.10;99.90;;;;;;5024640;28;20021;-71
2022/06/24 12:41:46;;;;;;;4.13;3.72;;;23.40;99.90;;;;;;5024971;28;20025;-71
2022/06/24 12:44:12;;;;;;;4.82;4.47;;;23.50;99.90;;;;;;5025659;28;20025;-71
2022/06/24 12:50:34;;;;;;;5.38;3.90;;;23.60;99.90;;;;;;5029388;28;20071;-71
2022/06/24 12:52:08;;;;;;;3.80;3.53;;;24.20;99.90;;;;;;5016316;28;20060;-71
2022/06/24 12:54:34;;;;;;;3.03;2.78;;;24.40;99.90;;;;;;5028852;28;20453;-72
2022/06/24 12:56:59;;;;;;;3.42;2.85;;;24.50;99.90;;;;;;5026436;28;20389;-71
2022/06/24 12:59:29;;;;;;;3.38;3.08;;;25.30;99.90;;;;;;5025244;28;20028;-71
2022/06/24 13:01:55;;;;;;;2.70;2.50;;;24.30;99.90;;;;;;5026946;28;20426;-71
2022/06/24 13:04:20;;;;;;;3.45;2.53;;;24.50;99.90;;;;;;5027968;28;20105;-72
2022/06/24 13:06:46;;;;;;;4.25;3.95;;;24.40;99.90;;;;;;5027285;28;20049;-71